Huvudsida
METAR-TAF:

METAR-TAF

Flygplatser :

Port Vila, Efate, Vanuatu

latitud: 17-42S, longitud: 168-18E, höjd: 20 m

Aktuellt väderrapport

Denna rapport gjordes för 38 minuter sedan, klockan 17:00 UTC
Vind 3 kt från ost
Temperatur 18°C
Fuktighet 88%
Tryck 1014 hPa
Sikt 10 km eller mer
Brutna moln på en höjd av 2000 ft

METAR: NVVV 221700Z 09003KT 9999 BKN020 18/16 Q1014 RMK NIL

Tid: 04:38 (17:38 UTC)

Väderprognos

Denna rapport gjordes för 1 timme och 38 minuter sedan, klockan 16:00 UTC
Prognos gäller från 22 kl. 18 UTC till 23 kl. 18 UTC
Vind 10 kt från sydost
Sikt 10 km eller mer
Spridda moln på en höjd av 2200 ft

TAF: NVVV 221600Z 2218/2318 13010KT 9999 SCT022

Aktuella väderrapporter och prognoser från 4000 flygplatser (METAR- och TAF-rapporter).

De tillgängliga stationerna syns som gula och röda prickar på kartan.

För musen över prickarna för att se namnen på stationerna.

Klicka sedan för att få väderrapporter och prognoser.

För att ändra kartan: Klicka på de gröna knapparna med ett svart kors på för att zooma in; den gröna knappen med ett streck på för att zooma ut; eller på de gröna pilarna för angränsande kartor.


METAR-TAF: